createdAt,value
2018-12-18T00:00:22.365Z,55.47
2018-12-18T00:02:51.020Z,57.53
2018-12-18T00:05:24.653Z,55.63
2018-12-18T00:07:52.926Z,55.03
2018-12-18T00:10:21.235Z,54.97
2018-12-18T00:12:49.271Z,52.53
2018-12-18T00:15:17.239Z,54.50
2018-12-18T00:17:45.110Z,53.13
2018-12-18T00:20:13.211Z,51.37
2018-12-18T00:22:41.655Z,54.20
2018-12-18T00:25:09.521Z,51.23
2018-12-18T00:27:37.387Z,50.13
2018-12-18T00:30:06.276Z,52.03
2018-12-18T00:32:34.348Z,52.43
2018-12-18T00:35:02.416Z,49.63
2018-12-18T00:37:30.901Z,51.97
2018-12-18T00:39:58.972Z,51.60
2018-12-18T00:42:27.038Z,53.60
2018-12-18T00:44:55.279Z,51.27
2018-12-18T00:47:23.180Z,51.10
2018-12-18T00:49:51.251Z,49.43
2018-12-18T00:52:19.293Z,50.73
2018-12-18T00:54:47.186Z,51.03
2018-12-18T00:57:15.060Z,51.77
2018-12-18T00:59:43.296Z,50.07
2018-12-18T01:02:11.400Z,49.80
2018-12-18T01:04:39.467Z,50.40
2018-12-18T01:07:07.588Z,51.37
2018-12-18T01:09:35.411Z,50.83
2018-12-18T01:12:03.959Z,52.73
2018-12-18T01:14:32.351Z,52.27
2018-12-18T01:17:00.437Z,50.23
2018-12-18T01:19:28.496Z,51.93
2018-12-18T01:21:56.829Z,51.17
2018-12-18T01:24:25.223Z,55.93
2018-12-18T01:26:53.147Z,55.40
2018-12-18T01:29:21.404Z,54.47
2018-12-18T01:31:49.443Z,56.43
2018-12-18T01:34:17.340Z,55.40
2018-12-18T01:36:45.350Z,56.50
2018-12-18T01:39:13.277Z,54.70
2018-12-18T01:41:41.243Z,55.47
2018-12-18T01:44:09.919Z,56.73
2018-12-18T01:46:37.966Z,55.67
2018-12-18T01:49:06.073Z,54.57
2018-12-18T01:51:33.941Z,55.73
2018-12-18T01:54:01.803Z,54.90
2018-12-18T01:56:29.931Z,55.40
2018-12-18T01:58:58.184Z,54.10
2018-12-18T02:01:26.229Z,54.03
2018-12-18T02:03:54.086Z,55.47
2018-12-18T02:06:22.564Z,55.70
2018-12-18T02:08:50.749Z,55.67
2018-12-18T02:11:18.943Z,55.10
2018-12-18T02:13:47.564Z,55.33
2018-12-18T02:16:15.569Z,54.37
2018-12-18T02:18:43.538Z,53.63
2018-12-18T02:21:11.499Z,53.23
2018-12-18T02:23:39.570Z,54.87
2018-12-18T02:26:08.426Z,55.23
2018-12-18T02:28:36.541Z,53.33
2018-12-18T02:31:04.612Z,52.97
2018-12-18T02:33:33.291Z,53.70
2018-12-18T02:36:01.329Z,54.40
2018-12-18T02:38:29.635Z,53.03
2018-12-18T02:40:57.908Z,54.00
2018-12-18T02:43:25.877Z,52.37
2018-12-18T02:45:54.193Z,50.57
2018-12-18T02:48:22.604Z,50.33
2018-12-18T02:50:50.970Z,52.10
2018-12-18T02:53:18.982Z,49.67
2018-12-18T02:55:47.258Z,53.63
2018-12-18T02:58:15.326Z,49.90
2018-12-18T03:00:43.396Z,51.43
2018-12-18T03:03:12.097Z,50.80
2018-12-18T03:05:40.147Z,49.83
2018-12-18T03:08:08.188Z,52.17
2018-12-18T03:10:36.518Z,50.43
2018-12-18T03:13:04.563Z,50.03
2018-12-18T03:15:33.063Z,49.70
2018-12-18T03:18:01.015Z,50.53
2018-12-18T03:20:28.918Z,51.70
2018-12-18T03:22:57.362Z,50.20
2018-12-18T03:25:25.239Z,50.03
2018-12-18T03:27:53.295Z,49.97
2018-12-18T03:30:21.951Z,49.60
2018-12-18T03:32:50.507Z,48.40
2018-12-18T03:35:18.502Z,48.17
2018-12-18T03:37:46.498Z,47.57
2018-12-18T03:40:14.880Z,48.40
2018-12-18T03:42:43.465Z,50.13
2018-12-18T03:45:11.915Z,49.77
2018-12-18T03:47:40.323Z,48.97
2018-12-18T03:50:08.798Z,50.17
2018-12-18T03:52:36.869Z,50.87
2018-12-18T03:55:05.559Z,50.10
2018-12-18T03:57:33.757Z,51.60
2018-12-18T04:00:01.910Z,50.90
2018-12-18T04:02:30.485Z,49.27
2018-12-18T04:04:58.551Z,49.17
2018-12-18T04:07:26.838Z,49.67
2018-12-18T04:09:54.810Z,49.00
2018-12-18T04:12:22.768Z,49.97
2018-12-18T04:14:50.734Z,49.53
2018-12-18T04:17:19.213Z,46.87
2018-12-18T04:19:47.076Z,46.80
2018-12-18T04:22:14.949Z,46.20
2018-12-18T04:24:43.321Z,46.10
2018-12-18T04:27:11.149Z,43.03
2018-12-18T04:29:39.461Z,43.20
2018-12-18T04:32:07.353Z,44.83
2018-12-18T04:34:42.701Z,42.33
2018-12-18T04:37:05.838Z,43.67
2018-12-18T04:39:34.142Z,43.60
2018-12-18T04:42:02.779Z,42.00
2018-12-18T04:44:30.987Z,42.13
2018-12-18T04:47:00.020Z,42.23
2018-12-18T04:49:28.297Z,41.40
2018-12-18T04:51:56.711Z,41.80
2018-12-18T04:54:24.937Z,41.80
2018-12-18T04:56:53.084Z,41.90
2018-12-18T04:59:21.420Z,40.23
2018-12-18T05:01:49.633Z,41.60
2018-12-18T05:04:18.087Z,42.30
2018-12-18T05:06:46.583Z,42.33
2018-12-18T05:09:15.073Z,42.20
2018-12-18T05:11:43.762Z,40.77
2018-12-18T05:14:11.831Z,37.43
2018-12-18T05:16:45.719Z,40.67
2018-12-18T05:19:13.863Z,41.87
2018-12-18T05:21:42.883Z,39.87
2018-12-18T05:24:10.867Z,39.33
2018-12-18T05:26:39.115Z,40.03
2018-12-18T05:29:07.013Z,39.37
2018-12-18T05:31:35.295Z,41.83
2018-12-18T05:34:03.283Z,39.10
2018-12-18T05:36:31.400Z,40.37
2018-12-18T05:38:59.302Z,41.07
2018-12-18T05:41:27.544Z,39.77
2018-12-18T05:43:55.855Z,39.77
2018-12-18T05:46:23.909Z,39.20
2018-12-18T05:48:51.955Z,39.77
2018-12-18T05:51:20.463Z,40.57
2018-12-18T05:53:48.711Z,39.47
2018-12-18T05:56:16.807Z,39.67
2018-12-18T05:58:44.889Z,40.13
2018-12-18T06:01:13.343Z,40.77
2018-12-18T06:03:41.301Z,39.73
2018-12-18T06:06:09.217Z,39.07
2018-12-18T06:08:37.119Z,39.77
2018-12-18T06:11:05.219Z,40.10
2018-12-18T06:13:33.119Z,40.43
2018-12-18T06:16:01.071Z,38.83
2018-12-18T06:18:29.063Z,39.50
2018-12-18T06:20:57.775Z,40.33
2018-12-18T06:23:25.720Z,39.70
2018-12-18T06:25:53.749Z,40.70
2018-12-18T06:28:21.805Z,39.70
2018-12-18T06:30:51.917Z,40.03
2018-12-18T06:33:19.816Z,40.60
2018-12-18T06:35:47.930Z,39.87
2018-12-18T06:38:15.932Z,39.77
2018-12-18T06:40:44.271Z,40.13
2018-12-18T06:43:12.123Z,38.83
2018-12-18T06:45:40.206Z,40.50
2018-12-18T06:48:08.334Z,38.10
2018-12-18T06:50:36.278Z,37.80
2018-12-18T06:53:04.484Z,37.57
2018-12-18T06:55:32.728Z,38.43
2018-12-18T06:58:00.593Z,37.43
2018-12-18T07:00:35.683Z,38.17
2018-12-18T07:03:06.873Z,37.33
2018-12-18T07:05:36.391Z,39.07
2018-12-18T07:08:06.147Z,40.47
2018-12-18T07:10:37.890Z,38.90
2018-12-18T07:13:05.706Z,39.57
2018-12-18T07:15:34.240Z,40.50
2018-12-18T07:18:02.376Z,40.93
2018-12-18T07:20:30.616Z,41.87
2018-12-18T07:22:58.823Z,41.87
2018-12-18T07:25:26.662Z,42.47
2018-12-18T07:27:55.054Z,42.87
2018-12-18T07:30:23.247Z,42.13
2018-12-18T07:32:51.371Z,43.53
2018-12-18T07:35:23.193Z,41.90
2018-12-18T07:37:50.191Z,40.33
2018-12-18T07:40:18.547Z,40.80
2018-12-18T07:42:46.452Z,41.17
2018-12-18T07:45:14.487Z,40.43
2018-12-18T07:47:42.525Z,40.20
2018-12-18T07:50:12.950Z,40.50
2018-12-18T07:52:41.460Z,42.57
2018-12-18T07:55:09.647Z,41.70
2018-12-18T07:57:38.444Z,41.40
2018-12-18T08:00:06.752Z,42.47
2018-12-18T08:02:34.818Z,39.57
2018-12-18T08:05:03.082Z,40.07
2018-12-18T08:07:30.968Z,40.10
2018-12-18T08:09:59.012Z,42.33
2018-12-18T08:12:27.109Z,38.87
2018-12-18T08:14:55.156Z,39.83
2018-12-18T08:17:22.975Z,37.77
2018-12-18T08:19:50.871Z,38.57
2018-12-18T08:22:19.015Z,37.47
2018-12-18T08:24:46.892Z,37.00
2018-12-18T08:27:14.753Z,37.23
2018-12-18T08:29:42.647Z,37.63
2018-12-18T08:32:11.053Z,37.73
2018-12-18T08:34:38.991Z,37.03
2018-12-18T08:37:06.971Z,36.77
2018-12-18T08:39:34.834Z,37.17
2018-12-18T08:42:02.903Z,37.23
2018-12-18T08:44:31.112Z,34.10
2018-12-18T08:46:59.072Z,35.53
2018-12-18T08:49:28.079Z,35.33
2018-12-18T08:51:58.931Z,35.33
2018-12-18T08:54:29.866Z,35.03
2018-12-18T08:56:59.130Z,34.37
2018-12-18T08:59:27.699Z,35.23
2018-12-18T09:01:55.779Z,32.73
2018-12-18T09:04:23.838Z,33.50
2018-12-18T09:06:52.856Z,32.43
2018-12-18T09:09:20.968Z,30.63
2018-12-18T09:11:49.342Z,31.60
2018-12-18T09:14:17.643Z,30.03
2018-12-18T09:16:51.562Z,30.37
2018-12-18T09:19:19.619Z,29.00
2018-12-18T09:21:48.501Z,30.03
2018-12-18T09:24:16.739Z,28.83
2018-12-18T09:26:44.580Z,29.33
2018-12-18T09:29:12.440Z,28.47
2018-12-18T09:31:40.547Z,28.70
2018-12-18T09:34:08.528Z,28.67
2018-12-18T09:36:36.941Z,29.10
2018-12-18T09:39:13.303Z,27.87
2018-12-18T09:41:43.479Z,28.97
2018-12-18T09:44:15.775Z,26.73
2018-12-18T09:46:43.915Z,29.07
2018-12-18T09:49:12.513Z,28.53
2018-12-18T09:51:40.493Z,28.73
2018-12-18T09:54:08.424Z,28.43
2018-12-18T09:56:42.351Z,27.33
2018-12-18T09:59:10.368Z,30.23
2018-12-18T10:01:38.237Z,28.33
2018-12-18T10:04:06.386Z,29.80
2018-12-18T10:06:34.307Z,29.43
2018-12-18T10:09:09.436Z,30.13
2018-12-18T10:11:34.463Z,29.60
2018-12-18T10:14:02.781Z,29.20
2018-12-18T10:16:30.887Z,30.10
2018-12-18T10:18:58.860Z,31.20
2018-12-18T10:21:26.702Z,30.43
2018-12-18T10:23:54.883Z,30.67
2018-12-18T10:26:22.704Z,32.17
2018-12-18T10:28:50.510Z,32.20
2018-12-18T10:31:18.866Z,31.57
2018-12-18T10:33:47.147Z,32.07
2018-12-18T10:36:14.988Z,31.50
2018-12-18T10:38:43.329Z,31.63
2018-12-18T10:41:11.461Z,32.07
2018-12-18T10:43:39.431Z,32.50
2018-12-18T10:46:07.705Z,32.27
2018-12-18T10:48:35.790Z,32.13
2018-12-18T10:51:03.697Z,31.73
2018-12-18T10:53:31.928Z,31.10
2018-12-18T10:55:59.782Z,33.80
2018-12-18T10:58:28.176Z,32.10
2018-12-18T11:01:02.174Z,32.67
2018-12-18T11:03:30.047Z,32.40
2018-12-18T11:05:58.379Z,32.00
2018-12-18T11:08:26.259Z,32.20
2018-12-18T11:10:54.168Z,30.70
2018-12-18T11:13:22.592Z,32.17
2018-12-18T11:15:50.460Z,30.00
2018-12-18T11:18:18.510Z,31.17
2018-12-18T11:20:47.016Z,29.73
2018-12-18T11:23:14.995Z,31.17
2018-12-18T11:25:42.998Z,31.93
2018-12-18T11:28:11.464Z,32.53
2018-12-18T11:30:39.501Z,32.87
2018-12-18T11:33:07.344Z,32.70
2018-12-18T11:35:35.876Z,33.10
2018-12-18T11:38:03.951Z,32.30
2018-12-18T11:40:31.820Z,33.17
2018-12-18T11:42:59.751Z,32.47
2018-12-18T11:45:27.687Z,32.33
2018-12-18T11:47:55.827Z,30.80
2018-12-18T11:50:23.723Z,31.57
2018-12-18T11:52:51.727Z,32.50
2018-12-18T11:55:20.189Z,31.43
2018-12-18T11:57:48.131Z,31.77
2018-12-18T12:00:17.070Z,32.53
2018-12-18T12:02:45.419Z,31.43
2018-12-18T12:05:13.556Z,31.53
2018-12-18T12:07:41.678Z,31.20
2018-12-18T12:10:09.790Z,32.20
2018-12-18T12:12:37.604Z,31.47
2018-12-18T12:15:06.255Z,30.63
2018-12-18T12:17:34.608Z,31.43
2018-12-18T12:20:02.466Z,33.47
2018-12-18T12:22:30.362Z,37.87
2018-12-18T12:24:58.348Z,30.27
2018-12-18T12:27:32.624Z,29.57
2018-12-18T12:30:00.911Z,29.83
2018-12-18T12:32:28.783Z,30.43
2018-12-18T12:34:56.715Z,28.80
2018-12-18T12:37:26.615Z,28.77
2018-12-18T12:39:55.528Z,29.27
2018-12-18T12:42:23.415Z,28.07
2018-12-18T12:44:51.542Z,28.17
2018-12-18T12:47:19.395Z,27.47
2018-12-18T12:49:47.212Z,27.43
2018-12-18T12:52:15.263Z,25.90
2018-12-18T12:54:43.078Z,25.67
2018-12-18T12:57:11.219Z,26.57
2018-12-18T12:59:39.352Z,27.03
2018-12-18T13:02:07.260Z,25.67
2018-12-18T13:04:35.499Z,24.57
2018-12-18T13:07:03.597Z,25.93
2018-12-18T13:09:31.768Z,22.70
2018-12-18T13:12:00.006Z,24.27
2018-12-18T13:14:27.824Z,23.40
2018-12-18T13:16:55.711Z,24.33
2018-12-18T13:19:24.143Z,23.83
2018-12-18T13:21:52.284Z,22.73
2018-12-18T13:24:20.159Z,23.43
2018-12-18T13:26:48.079Z,23.27
2018-12-18T13:29:16.187Z,23.40
2018-12-18T13:31:44.388Z,21.77
2018-12-18T13:34:12.372Z,19.87
2018-12-18T13:36:43.163Z,17.93
2018-12-18T13:39:10.687Z,17.90
2018-12-18T13:41:38.680Z,18.50
2018-12-18T13:44:06.891Z,17.67
2018-12-18T13:46:34.952Z,17.47
2018-12-18T13:49:02.776Z,15.63
2018-12-18T13:51:30.894Z,16.57
2018-12-18T13:53:59.020Z,15.27
2018-12-18T13:56:26.896Z,16.13
2018-12-18T13:58:54.995Z,16.30
2018-12-18T14:01:23.651Z,14.87
2018-12-18T14:03:51.496Z,13.80
2018-12-18T14:06:19.557Z,15.30
2018-12-18T14:08:49.343Z,14.83
2018-12-18T14:11:17.337Z,12.40
2018-12-18T14:13:45.406Z,12.67
2018-12-18T14:16:13.472Z,12.90
2018-12-18T14:18:41.685Z,13.43
2018-12-18T14:21:09.511Z,13.07
2018-12-18T14:23:37.341Z,13.33
2018-12-18T14:26:05.659Z,13.70
2018-12-18T14:28:33.479Z,12.83
2018-12-18T14:31:01.608Z,13.17
2018-12-18T14:33:29.679Z,12.43
2018-12-18T14:35:57.499Z,14.30
2018-12-18T14:38:25.336Z,13.30
2018-12-18T14:40:53.393Z,13.07
2018-12-18T14:43:21.217Z,12.93
2018-12-18T14:45:49.276Z,21.53
2018-12-18T14:48:17.152Z,13.63
2018-12-18T14:50:45.098Z,13.23
2018-12-18T14:53:12.959Z,12.63
2018-12-18T14:55:41.044Z,14.30
2018-12-18T14:58:08.905Z,13.63
2018-12-18T15:00:36.805Z,14.00
2018-12-18T15:03:05.233Z,13.17
2018-12-18T15:05:33.091Z,14.57
2018-12-18T15:08:00.922Z,13.03
2018-12-18T15:10:28.788Z,12.77
2018-12-18T15:12:57.031Z,12.60
2018-12-18T15:15:24.996Z,11.73
2018-12-18T15:17:52.956Z,12.07
2018-12-18T15:20:20.814Z,12.40
2018-12-18T15:22:48.979Z,13.27
2018-12-18T15:25:17.117Z,12.13
2018-12-18T15:27:44.936Z,11.87
2018-12-18T15:30:14.111Z,12.97
2018-12-18T15:32:42.191Z,12.43
2018-12-18T15:35:10.020Z,12.53
2018-12-18T15:37:38.690Z,12.93
2018-12-18T15:40:07.009Z,13.93
2018-12-18T15:42:34.917Z,14.63
2018-12-18T15:45:03.111Z,14.63
2018-12-18T15:47:32.195Z,14.23
2018-12-18T15:50:01.785Z,14.90
2018-12-18T15:52:30.584Z,15.07
2018-12-18T15:54:59.214Z,14.63
2018-12-18T15:57:30.044Z,13.87
2018-12-18T15:59:58.120Z,13.80
2018-12-18T16:02:28.094Z,13.40
2018-12-18T16:04:56.980Z,13.90
2018-12-18T16:07:25.094Z,12.60
2018-12-18T16:09:52.984Z,11.87
2018-12-18T16:12:23.305Z,11.47
2018-12-18T16:14:51.125Z,10.87
2018-12-18T16:17:19.018Z,10.70
2018-12-18T16:19:47.303Z,11.50
2018-12-18T16:22:15.720Z,10.60
2018-12-18T16:24:44.119Z,20.43
2018-12-18T16:27:12.531Z,12.20
2018-12-18T16:29:40.543Z,11.13
2018-12-18T16:32:08.679Z,11.07
2018-12-18T16:34:38.237Z,11.77
2018-12-18T16:37:07.232Z,10.83
2018-12-18T16:39:36.539Z,10.90
2018-12-18T16:42:05.340Z,13.40
2018-12-18T16:44:33.581Z,11.90
2018-12-18T16:47:01.424Z,10.87
2018-12-18T16:49:30.485Z,10.47
2018-12-18T16:51:59.484Z,11.00
2018-12-18T16:54:27.622Z,10.43
2018-12-18T16:56:56.309Z,11.80
2018-12-18T16:59:24.241Z,10.80
2018-12-18T17:01:52.360Z,11.07
2018-12-18T17:04:20.547Z,11.97
2018-12-18T17:06:48.451Z,11.87
2018-12-18T17:09:16.770Z,11.20
2018-12-18T17:11:45.815Z,11.13
2018-12-18T17:14:13.818Z,12.27
2018-12-18T17:16:41.728Z,11.37
2018-12-18T17:19:10.028Z,11.60
2018-12-18T17:21:37.918Z,11.30
2018-12-18T17:24:05.902Z,12.43
2018-12-18T17:26:33.844Z,11.70
2018-12-18T17:29:01.962Z,12.23
2018-12-18T17:31:29.911Z,12.50
2018-12-18T17:33:57.783Z,11.30
2018-12-18T17:36:26.209Z,11.73
2018-12-18T17:38:54.111Z,14.07
2018-12-18T17:41:22.092Z,11.77
2018-12-18T17:43:51.086Z,12.87
2018-12-18T17:46:19.764Z,14.27
2018-12-18T17:48:47.596Z,13.53
2018-12-18T17:51:15.917Z,12.73
2018-12-18T17:53:43.854Z,13.03
2018-12-18T17:56:11.723Z,13.13
2018-12-18T17:58:40.164Z,13.63
2018-12-18T18:01:08.088Z,13.93
2018-12-18T18:03:35.908Z,13.20
2018-12-18T18:06:04.067Z,12.93
2018-12-18T18:08:31.884Z,13.17
2018-12-18T18:10:59.968Z,14.23
2018-12-18T18:13:28.779Z,13.53
2018-12-18T18:15:56.693Z,12.77
2018-12-18T18:18:24.876Z,13.93
2018-12-18T18:20:53.751Z,13.17
2018-12-18T18:23:22.063Z,12.43
2018-12-18T18:25:50.475Z,12.17
2018-12-18T18:28:18.833Z,11.63
2018-12-18T18:30:46.694Z,11.23
2018-12-18T18:33:14.867Z,12.83
2018-12-18T18:35:42.947Z,12.37
2018-12-18T18:38:11.048Z,15.33
2018-12-18T18:40:39.040Z,16.60
2018-12-18T18:43:07.483Z,15.10
2018-12-18T18:45:35.348Z,14.97
2018-12-18T18:48:03.179Z,12.07
2018-12-18T18:50:31.442Z,11.63
2018-12-18T18:52:59.380Z,11.57
2018-12-18T18:55:27.584Z,11.03
2018-12-18T18:57:55.750Z,11.70
2018-12-18T19:00:24.111Z,11.80
2018-12-18T19:02:51.944Z,12.27
2018-12-18T19:05:20.007Z,12.57
2018-12-18T19:07:48.087Z,21.97
2018-12-18T19:10:15.900Z,12.70
2018-12-18T19:12:43.971Z,12.17
2018-12-18T19:15:11.868Z,12.57
2018-12-18T19:17:39.729Z,12.53
2018-12-18T19:20:08.386Z,11.83
2018-12-18T19:22:36.425Z,11.93
2018-12-18T19:25:04.580Z,11.37
2018-12-18T19:27:32.392Z,11.77
2018-12-18T19:30:00.468Z,12.13
2018-12-18T19:32:28.833Z,12.33
2018-12-18T19:34:56.829Z,12.33
2018-12-18T19:37:24.852Z,12.70
2018-12-18T19:39:53.299Z,11.33
2018-12-18T19:42:21.398Z,11.77
2018-12-18T19:44:49.878Z,11.27
2018-12-18T19:47:18.320Z,10.90
2018-12-18T19:49:46.168Z,11.23
2018-12-18T19:52:14.014Z,10.50
2018-12-18T19:54:42.358Z,10.67
2018-12-18T19:57:10.175Z,11.17
2018-12-18T19:59:38.251Z,10.57
2018-12-18T20:02:06.705Z,11.70
2018-12-18T20:04:34.637Z,12.40
2018-12-18T20:07:02.644Z,12.53
2018-12-18T20:09:30.849Z,13.00
2018-12-18T20:11:58.700Z,12.73
2018-12-18T20:14:27.646Z,11.93
2018-12-18T20:16:55.964Z,12.20
2018-12-18T20:19:24.086Z,12.97
2018-12-18T20:21:53.213Z,12.57
2018-12-18T20:24:21.029Z,12.77
2018-12-18T20:26:48.946Z,13.83
2018-12-18T20:29:16.862Z,12.57
2018-12-18T20:31:46.555Z,12.43
2018-12-18T20:34:14.494Z,12.67
2018-12-18T20:36:42.561Z,13.13
2018-12-18T20:39:10.693Z,13.27
2018-12-18T20:41:38.713Z,13.40
2018-12-18T20:44:06.763Z,13.63
2018-12-18T20:46:34.692Z,12.93
2018-12-18T20:49:03.315Z,14.40
2018-12-18T20:51:31.874Z,13.93
2018-12-18T20:54:00.386Z,13.30
2018-12-18T20:56:28.364Z,14.10
2018-12-18T20:58:56.209Z,14.37
2018-12-18T21:01:24.052Z,13.60
2018-12-18T21:03:52.271Z,16.63
2018-12-18T21:06:20.159Z,16.40
2018-12-18T21:08:48.068Z,16.60
2018-12-18T21:11:16.411Z,16.97
2018-12-18T21:13:44.315Z,18.23
2018-12-18T21:16:12.214Z,17.80
2018-12-18T21:18:40.439Z,18.47
2018-12-18T21:21:15.100Z,18.13
2018-12-18T21:23:38.562Z,19.47
2018-12-18T21:26:07.194Z,18.17
2018-12-18T21:28:35.317Z,17.90
2018-12-18T21:31:03.489Z,19.30
2018-12-18T21:33:31.969Z,20.23
2018-12-18T21:35:59.813Z,18.47
2018-12-18T21:38:30.462Z,19.30
2018-12-18T21:40:58.643Z,17.70
2018-12-18T21:43:26.819Z,18.70
2018-12-18T21:45:54.933Z,19.57
2018-12-18T21:48:23.241Z,19.70
2018-12-18T21:50:53.159Z,17.90
2018-12-18T21:53:21.302Z,19.67
2018-12-18T21:55:49.517Z,18.17
2018-12-18T21:58:17.383Z,18.67
2018-12-18T22:00:45.232Z,18.07
2018-12-18T22:03:13.557Z,18.27
2018-12-18T22:05:41.595Z,18.50
2018-12-18T22:08:09.567Z,17.43
2018-12-18T22:10:38.915Z,17.37
2018-12-18T22:13:07.076Z,17.37
2018-12-18T22:15:34.923Z,16.60
2018-12-18T22:18:03.051Z,16.77
2018-12-18T22:20:31.759Z,17.23
2018-12-18T22:23:00.034Z,17.47
2018-12-18T22:25:27.877Z,16.23
2018-12-18T22:27:56.134Z,17.63
2018-12-18T22:30:24.040Z,16.70
2018-12-18T22:32:52.313Z,16.93
2018-12-18T22:35:20.386Z,17.43
2018-12-18T22:37:48.250Z,17.60
2018-12-18T22:40:17.514Z,16.50
2018-12-18T22:42:45.883Z,16.97
2018-12-18T22:45:13.727Z,15.77
2018-12-18T22:47:42.070Z,17.10
2018-12-18T22:50:10.137Z,16.97
2018-12-18T22:52:38.414Z,16.17
2018-12-18T22:55:06.689Z,17.53
2018-12-18T22:57:34.563Z,15.37
2018-12-18T23:00:04.831Z,16.53
2018-12-18T23:02:34.991Z,16.10
2018-12-18T23:05:03.203Z,15.87
2018-12-18T23:07:31.067Z,16.77
2018-12-18T23:09:59.410Z,17.13
2018-12-18T23:12:28.441Z,17.27
2018-12-18T23:14:56.395Z,16.83
2018-12-18T23:17:24.254Z,16.77
2018-12-18T23:19:52.340Z,16.93
2018-12-18T23:22:20.267Z,16.93
2018-12-18T23:24:48.415Z,17.30
2018-12-18T23:27:16.367Z,17.13
2018-12-18T23:29:44.588Z,17.13
2018-12-18T23:32:13.171Z,16.43
2018-12-18T23:34:41.166Z,17.53
2018-12-18T23:37:09.339Z,18.80
2018-12-18T23:39:37.197Z,18.67
2018-12-18T23:42:05.512Z,19.73
2018-12-18T23:44:33.542Z,19.30
2018-12-18T23:47:02.233Z,19.63
2018-12-18T23:49:30.688Z,21.17
2018-12-18T23:51:59.208Z,20.57
2018-12-18T23:54:27.242Z,21.13
2018-12-18T23:56:55.216Z,21.80
2018-12-18T23:59:23.776Z,22.87
